createdAt,value
2019-01-24T00:00:52.044Z,92.96
2019-01-24T00:03:21.687Z,91.88
2019-01-24T00:05:51.277Z,91.37
2019-01-24T00:08:20.842Z,91.03
2019-01-24T00:10:50.458Z,92.58
2019-01-24T00:13:19.978Z,93.71
2019-01-24T00:15:49.538Z,91.27
2019-01-24T00:18:19.102Z,90.79
2019-01-24T00:20:48.606Z,90.95
2019-01-24T00:23:18.088Z,91.00
2019-01-24T00:25:47.658Z,91.59
2019-01-24T00:28:17.224Z,89.32
2019-01-24T00:30:46.881Z,90.13
2019-01-24T00:33:16.386Z,89.78
2019-01-24T00:35:45.896Z,91.69
2019-01-24T00:38:15.419Z,92.12
2019-01-24T00:40:44.924Z,93.32
2019-01-24T00:43:14.686Z,91.54
2019-01-24T00:45:44.271Z,89.91
2019-01-24T00:48:13.780Z,90.85
2019-01-24T00:50:43.337Z,89.42
2019-01-24T00:53:12.867Z,88.63
2019-01-24T00:55:42.390Z,88.16
2019-01-24T00:58:11.963Z,90.12
2019-01-24T01:00:41.481Z,89.01
2019-01-24T01:03:10.977Z,88.16
2019-01-24T01:05:40.724Z,89.11
2019-01-24T01:08:10.376Z,87.40
2019-01-24T01:10:39.885Z,86.76
2019-01-24T01:13:09.502Z,86.42
2019-01-24T01:15:38.985Z,87.01
2019-01-24T01:18:08.559Z,87.44
2019-01-24T01:20:38.122Z,86.92
2019-01-24T01:23:07.687Z,90.35
2019-01-24T01:25:37.296Z,88.35
2019-01-24T01:28:06.885Z,88.86
2019-01-24T01:30:36.445Z,88.29
2019-01-24T01:33:06.398Z,88.77
2019-01-24T01:35:35.970Z,89.74
2019-01-24T01:38:06.009Z,91.28
2019-01-24T01:40:36.714Z,91.99
2019-01-24T01:43:06.528Z,90.88
2019-01-24T01:45:36.043Z,89.85
2019-01-24T01:48:06.336Z,89.94
2019-01-24T01:50:35.884Z,88.19
2019-01-24T01:53:05.751Z,88.62
2019-01-24T01:55:35.238Z,88.54
2019-01-24T01:58:05.125Z,89.60
2019-01-24T02:00:34.793Z,87.64
2019-01-24T02:03:04.675Z,89.69
2019-01-24T02:05:34.231Z,89.46
2019-01-24T02:08:03.798Z,87.94
2019-01-24T02:10:33.831Z,88.46
2019-01-24T02:13:03.399Z,88.80
2019-01-24T02:15:32.917Z,87.70
2019-01-24T02:18:02.544Z,88.14
2019-01-24T02:20:32.148Z,89.03
2019-01-24T02:23:01.634Z,89.42
2019-01-24T02:25:31.187Z,88.63
2019-01-24T02:28:00.683Z,87.31
2019-01-24T02:30:31.111Z,87.00
2019-01-24T02:33:00.766Z,87.38
2019-01-24T02:35:30.272Z,86.53
2019-01-24T02:37:59.798Z,87.20
2019-01-24T02:40:29.381Z,87.04
2019-01-24T02:42:58.878Z,86.38
2019-01-24T02:45:28.434Z,84.95
2019-01-24T02:47:57.933Z,84.59
2019-01-24T02:50:27.421Z,85.73
2019-01-24T02:52:56.916Z,87.02
2019-01-24T02:55:26.479Z,86.36
2019-01-24T02:57:55.969Z,87.12
2019-01-24T03:00:25.636Z,87.42
2019-01-24T03:02:55.153Z,86.98
2019-01-24T03:05:25.182Z,88.03
2019-01-24T03:07:54.825Z,90.19
2019-01-24T03:10:24.313Z,91.40
2019-01-24T03:12:53.894Z,88.43
2019-01-24T03:15:24.119Z,87.62
2019-01-24T03:17:53.622Z,87.64
2019-01-24T03:20:23.126Z,87.63
2019-01-24T03:22:52.676Z,87.07
2019-01-24T03:25:22.237Z,86.00
2019-01-24T03:27:51.817Z,88.50
2019-01-24T03:30:23.270Z,87.07
2019-01-24T03:32:52.823Z,85.26
2019-01-24T03:35:25.114Z,85.80
2019-01-24T03:37:54.620Z,86.56
2019-01-24T03:40:24.453Z,87.33
2019-01-24T03:42:54.056Z,89.64
2019-01-24T03:45:23.585Z,88.53
2019-01-24T03:47:53.071Z,90.33
2019-01-24T03:50:23.309Z,89.44
2019-01-24T03:52:52.940Z,89.42
2019-01-24T03:55:23.040Z,89.32
2019-01-24T03:57:52.627Z,88.72
2019-01-24T04:00:24.632Z,89.18
2019-01-24T04:02:54.485Z,91.65
2019-01-24T04:05:24.315Z,90.14
2019-01-24T04:07:53.959Z,90.68
2019-01-24T04:10:23.943Z,89.41
2019-01-24T04:12:53.500Z,90.88
2019-01-24T04:15:25.420Z,89.88
2019-01-24T04:17:56.564Z,88.30
2019-01-24T04:20:26.130Z,89.77
2019-01-24T04:22:55.619Z,87.57
2019-01-24T04:25:25.109Z,88.16
2019-01-24T04:27:54.613Z,90.69
2019-01-24T04:30:24.512Z,90.81
2019-01-24T04:32:54.107Z,88.42
2019-01-24T04:35:23.739Z,91.81
2019-01-24T04:37:53.408Z,90.83
2019-01-24T04:40:22.966Z,90.38
2019-01-24T04:42:52.618Z,89.64
2019-01-24T04:45:22.177Z,90.46
2019-01-24T04:47:51.672Z,90.39
2019-01-24T04:50:21.174Z,90.47
2019-01-24T04:52:50.730Z,90.51
2019-01-24T04:55:20.870Z,91.37
2019-01-24T04:57:50.794Z,91.64
2019-01-24T05:00:30.060Z,91.02
2019-01-24T05:02:59.553Z,92.12
2019-01-24T05:05:29.227Z,91.29
2019-01-24T05:07:58.841Z,91.99
2019-01-24T05:10:28.366Z,91.65
2019-01-24T05:12:57.927Z,91.63
2019-01-24T05:15:27.487Z,91.11
2019-01-24T05:17:56.989Z,91.97
2019-01-24T05:20:26.551Z,90.77
2019-01-24T05:22:56.065Z,91.18
2019-01-24T05:25:25.559Z,89.73
2019-01-24T05:27:55.081Z,90.43
2019-01-24T05:30:26.675Z,90.96
2019-01-24T05:32:56.396Z,89.88
2019-01-24T05:35:26.175Z,94.68
2019-01-24T05:37:55.635Z,94.84
2019-01-24T05:40:25.141Z,93.41
2019-01-24T05:42:55.665Z,92.90
2019-01-24T05:45:44.502Z,93.75
2019-01-24T05:48:14.037Z,93.06
2019-01-24T05:50:43.553Z,91.51
2019-01-24T05:53:13.048Z,97.19
2019-01-24T05:55:42.554Z,98.06
2019-01-24T05:58:12.126Z,98.58
2019-01-24T06:00:42.477Z,98.72
2019-01-24T06:03:12.067Z,97.14
2019-01-24T06:05:42.051Z,96.60
2019-01-24T06:08:11.650Z,96.71
2019-01-24T06:10:41.136Z,96.91
2019-01-24T06:13:10.654Z,95.61
2019-01-24T06:15:40.214Z,94.98
2019-01-24T06:18:09.845Z,93.28
2019-01-24T06:20:40.024Z,92.02
2019-01-24T06:23:11.124Z,93.35
2019-01-24T06:25:40.819Z,92.65
2019-01-24T06:28:10.326Z,94.06
2019-01-24T06:30:39.822Z,94.12
2019-01-24T06:33:09.453Z,93.05
2019-01-24T06:35:38.975Z,95.47
2019-01-24T06:38:08.545Z,94.35
2019-01-24T06:40:38.052Z,94.98
2019-01-24T06:43:07.548Z,95.44
2019-01-24T06:45:37.199Z,92.92
2019-01-24T06:48:06.759Z,93.11
2019-01-24T06:50:36.326Z,91.30
2019-01-24T06:53:05.963Z,93.21
2019-01-24T06:55:35.458Z,93.53
2019-01-24T06:58:05.107Z,93.43
2019-01-24T07:00:34.624Z,91.35
2019-01-24T07:03:04.180Z,91.61
2019-01-24T07:05:33.738Z,93.39
2019-01-24T07:08:03.229Z,92.32
2019-01-24T07:10:32.729Z,91.55
2019-01-24T07:13:03.930Z,90.41
2019-01-24T07:15:33.596Z,90.40
2019-01-24T07:18:03.237Z,91.33
2019-01-24T07:20:32.774Z,90.25
2019-01-24T07:23:02.348Z,89.67
2019-01-24T07:25:32.595Z,90.35
2019-01-24T07:28:02.090Z,90.63
2019-01-24T07:30:31.665Z,91.74
2019-01-24T07:33:01.151Z,91.23
2019-01-24T07:35:30.741Z,88.80
2019-01-24T07:38:00.246Z,88.96
2019-01-24T07:40:29.835Z,89.32
2019-01-24T07:42:59.338Z,88.51
2019-01-24T07:45:36.057Z,91.22
2019-01-24T07:48:05.936Z,90.24
2019-01-24T07:50:35.502Z,92.75
2019-01-24T07:53:06.349Z,93.50
2019-01-24T07:55:35.904Z,93.98
2019-01-24T07:58:06.241Z,93.40
2019-01-24T08:00:35.742Z,91.50
2019-01-24T08:03:05.640Z,89.58
2019-01-24T08:05:35.215Z,90.58
2019-01-24T08:08:04.767Z,90.60
2019-01-24T08:10:34.465Z,88.50
2019-01-24T08:13:04.210Z,89.69
2019-01-24T08:15:33.779Z,88.02
2019-01-24T08:18:03.354Z,88.00
2019-01-24T08:20:32.837Z,88.76
2019-01-24T08:23:02.441Z,88.98
2019-01-24T08:25:31.905Z,88.64
2019-01-24T08:28:01.401Z,90.20
2019-01-24T08:30:33.472Z,88.78
2019-01-24T08:33:02.966Z,88.41
2019-01-24T08:35:32.655Z,88.31
2019-01-24T08:38:02.287Z,88.95
2019-01-24T08:40:31.785Z,89.76
2019-01-24T08:43:01.333Z,89.23
2019-01-24T08:45:30.825Z,88.82
2019-01-24T08:48:00.486Z,88.96
2019-01-24T08:50:30.070Z,90.68
2019-01-24T08:52:59.630Z,89.97
2019-01-24T08:55:38.087Z,92.25
2019-01-24T08:58:07.835Z,93.52
2019-01-24T09:00:37.465Z,91.25
2019-01-24T09:03:07.326Z,91.11
2019-01-24T09:05:36.968Z,89.78
2019-01-24T09:08:06.790Z,90.58
2019-01-24T09:10:38.495Z,89.99
2019-01-24T09:13:08.447Z,89.14
2019-01-24T09:15:38.254Z,89.65
2019-01-24T09:18:07.974Z,90.72
2019-01-24T09:20:37.552Z,90.48
2019-01-24T09:23:08.238Z,89.37
2019-01-24T09:25:37.764Z,89.95
2019-01-24T09:28:07.354Z,91.91
2019-01-24T09:30:36.988Z,89.87
2019-01-24T09:33:06.607Z,90.83
2019-01-24T09:35:36.245Z,91.29
2019-01-24T09:38:05.963Z,90.73
2019-01-24T09:40:35.501Z,91.84
2019-01-24T09:43:05.461Z,89.82
2019-01-24T09:45:35.033Z,89.25
2019-01-24T09:48:05.355Z,92.12
2019-01-24T09:50:34.909Z,89.81
2019-01-24T09:53:04.570Z,87.80
2019-01-24T09:55:34.141Z,89.49
2019-01-24T09:58:03.970Z,91.05
2019-01-24T10:00:35.319Z,90.90
2019-01-24T10:03:05.309Z,88.21
2019-01-24T10:05:34.892Z,88.11
2019-01-24T10:08:04.820Z,85.79
2019-01-24T10:10:34.328Z,87.86
2019-01-24T10:13:03.959Z,87.22
2019-01-24T10:15:33.590Z,85.90
2019-01-24T10:18:03.253Z,86.52
2019-01-24T10:20:32.758Z,86.73
2019-01-24T10:23:02.342Z,86.28
2019-01-24T10:25:35.029Z,87.04
2019-01-24T10:28:05.046Z,88.20
2019-01-24T10:30:34.634Z,87.34
2019-01-24T10:33:04.288Z,87.02
2019-01-24T10:35:33.859Z,87.44
2019-01-24T10:38:03.491Z,87.49
2019-01-24T10:40:34.165Z,88.14
2019-01-24T10:43:03.783Z,89.48
2019-01-24T10:45:33.369Z,89.71
2019-01-24T10:48:03.134Z,88.11
2019-01-24T10:50:32.707Z,89.42
2019-01-24T10:53:02.264Z,89.60
2019-01-24T10:55:31.892Z,90.25
2019-01-24T10:58:02.020Z,92.55
2019-01-24T11:00:35.158Z,91.37
2019-01-24T11:03:08.735Z,91.34
2019-01-24T11:05:38.366Z,89.37
2019-01-24T11:08:08.031Z,89.62
2019-01-24T11:10:37.530Z,89.16
2019-01-24T11:13:07.171Z,92.85
2019-01-24T11:15:36.812Z,92.42
2019-01-24T11:18:07.425Z,90.72
2019-01-24T11:20:36.992Z,89.58
2019-01-24T11:23:06.793Z,89.39
2019-01-24T11:25:36.695Z,89.10
2019-01-24T11:28:06.329Z,87.79
2019-01-24T11:30:36.390Z,87.71
2019-01-24T11:33:06.789Z,89.19
2019-01-24T11:35:37.911Z,88.65
2019-01-24T11:38:07.575Z,86.87
2019-01-24T11:40:37.148Z,86.60
2019-01-24T11:43:06.896Z,85.94
2019-01-24T11:45:40.019Z,87.90
2019-01-24T11:48:09.647Z,85.67
2019-01-24T11:50:39.224Z,84.45
2019-01-24T11:53:09.700Z,86.13
2019-01-24T11:55:39.320Z,82.77
2019-01-24T11:58:08.971Z,82.06
2019-01-24T12:00:41.525Z,83.12
2019-01-24T12:03:11.040Z,82.51
2019-01-24T12:05:40.527Z,81.41
2019-01-24T12:08:10.158Z,83.08
2019-01-24T12:10:39.715Z,83.80
2019-01-24T12:13:09.315Z,84.72
2019-01-24T12:15:38.973Z,84.88
2019-01-24T12:18:08.707Z,82.67
2019-01-24T12:20:38.359Z,86.22
2019-01-24T12:23:07.929Z,85.33
2019-01-24T12:25:37.561Z,86.95
2019-01-24T12:28:07.224Z,85.22
2019-01-24T12:30:38.048Z,84.42
2019-01-24T12:33:07.684Z,82.58
2019-01-24T12:35:37.246Z,84.60
2019-01-24T12:38:06.867Z,85.80
2019-01-24T12:40:36.436Z,83.64
2019-01-24T12:43:06.270Z,86.06
2019-01-24T12:45:37.803Z,82.44
2019-01-24T12:48:07.798Z,82.28
2019-01-24T12:50:37.380Z,82.22
2019-01-24T12:53:07.367Z,80.66
2019-01-24T12:55:37.011Z,82.53
2019-01-24T12:58:06.773Z,80.80
2019-01-24T13:00:37.980Z,80.43
2019-01-24T13:03:07.891Z,80.89
2019-01-24T13:05:37.516Z,80.83
2019-01-24T13:08:07.158Z,80.92
2019-01-24T13:10:36.851Z,77.67
2019-01-24T13:13:06.803Z,78.35
2019-01-24T13:15:36.798Z,79.32
2019-01-24T13:18:06.587Z,81.32
2019-01-24T13:20:36.269Z,78.40
2019-01-24T13:23:06.112Z,80.10
2019-01-24T13:25:35.659Z,80.18
2019-01-24T13:28:05.609Z,78.40
2019-01-24T13:30:35.347Z,80.05
2019-01-24T13:33:05.651Z,77.81
2019-01-24T13:35:35.246Z,78.36
2019-01-24T13:38:05.332Z,78.26
2019-01-24T13:40:34.835Z,77.21
2019-01-24T13:43:04.862Z,76.60
2019-01-24T13:45:36.741Z,79.19
2019-01-24T13:48:06.634Z,79.02
2019-01-24T13:50:36.194Z,77.78
2019-01-24T13:53:06.814Z,78.38
2019-01-24T13:55:36.306Z,77.42
2019-01-24T13:58:07.146Z,75.69
2019-01-24T14:00:37.563Z,76.71
2019-01-24T14:03:20.675Z,77.67
2019-01-24T14:05:50.323Z,77.32
2019-01-24T14:08:19.948Z,77.49
2019-01-24T14:10:49.448Z,78.37
2019-01-24T14:13:18.970Z,78.98
2019-01-24T14:15:48.537Z,80.24
2019-01-24T14:18:18.122Z,80.49
2019-01-24T14:20:50.287Z,81.36
2019-01-24T14:23:19.846Z,81.15
2019-01-24T14:25:49.363Z,80.57
2019-01-24T14:28:22.719Z,82.07
2019-01-24T14:30:52.196Z,83.27
2019-01-24T14:33:21.720Z,84.12
2019-01-24T14:35:51.527Z,83.46
2019-01-24T14:38:21.053Z,83.50
2019-01-24T14:40:50.588Z,83.49
2019-01-24T14:43:20.077Z,82.43
2019-01-24T14:45:49.708Z,82.89
2019-01-24T14:48:19.241Z,83.47
2019-01-24T14:50:48.806Z,84.19
2019-01-24T14:53:18.297Z,85.88
2019-01-24T14:55:47.969Z,84.68
2019-01-24T14:58:17.560Z,86.47
2019-01-24T15:00:54.978Z,84.75
2019-01-24T15:03:24.551Z,85.29
2019-01-24T15:05:54.111Z,86.94
2019-01-24T15:08:23.638Z,85.88
2019-01-24T15:10:53.127Z,86.91
2019-01-24T15:13:22.713Z,86.96
2019-01-24T15:15:52.301Z,87.87
2019-01-24T15:18:21.783Z,87.04
2019-01-24T15:20:51.292Z,86.08
2019-01-24T15:23:20.882Z,87.04
2019-01-24T15:25:50.524Z,86.11
2019-01-24T15:28:20.111Z,85.46
2019-01-24T15:30:49.680Z,87.29
2019-01-24T15:33:19.249Z,87.29
2019-01-24T15:35:48.750Z,88.42
2019-01-24T15:38:18.407Z,88.58
2019-01-24T15:40:48.016Z,89.71
2019-01-24T15:43:17.532Z,88.59
2019-01-24T15:45:47.168Z,88.75
2019-01-24T15:48:16.736Z,88.21
2019-01-24T15:50:46.305Z,88.10
2019-01-24T15:53:15.798Z,89.59
2019-01-24T15:55:45.503Z,89.29
2019-01-24T15:58:15.068Z,90.09
2019-01-24T16:00:44.634Z,90.22
2019-01-24T16:03:15.182Z,90.78
2019-01-24T16:05:44.762Z,90.91
2019-01-24T16:08:14.256Z,90.03
2019-01-24T16:10:43.829Z,90.48
2019-01-24T16:13:13.421Z,90.16
2019-01-24T16:15:43.051Z,89.66
2019-01-24T16:18:13.644Z,90.75
2019-01-24T16:20:43.603Z,90.38
2019-01-24T16:23:13.328Z,89.90
2019-01-24T16:25:42.971Z,90.93
2019-01-24T16:28:12.598Z,90.54
2019-01-24T16:30:42.116Z,90.02
2019-01-24T16:33:11.765Z,90.12
2019-01-24T16:35:41.408Z,90.17
2019-01-24T16:38:10.995Z,90.19
2019-01-24T16:40:40.494Z,90.90
2019-01-24T16:43:10.094Z,90.73
2019-01-24T16:45:39.678Z,90.55
2019-01-24T16:48:09.344Z,90.06
2019-01-24T16:50:38.986Z,91.19
2019-01-24T16:53:08.622Z,91.90
2019-01-24T16:55:38.138Z,91.79
2019-01-24T16:58:07.876Z,90.76
2019-01-24T17:00:46.847Z,91.12
2019-01-24T17:03:17.087Z,91.65
2019-01-24T17:05:46.713Z,92.35
2019-01-24T17:08:16.960Z,92.09
2019-01-24T17:10:46.584Z,93.16
2019-01-24T17:13:16.248Z,94.67
2019-01-24T17:15:45.751Z,94.05
2019-01-24T17:18:15.336Z,91.79
2019-01-24T17:20:44.970Z,92.04
2019-01-24T17:23:14.466Z,91.82
2019-01-24T17:25:43.963Z,93.57
2019-01-24T17:28:13.535Z,93.77
2019-01-24T17:30:43.096Z,93.94
2019-01-24T17:33:12.583Z,94.64
2019-01-24T17:35:42.143Z,95.12
2019-01-24T17:38:11.723Z,94.83
2019-01-24T17:40:41.375Z,93.27
2019-01-24T17:43:11.021Z,93.94
2019-01-24T17:45:40.605Z,91.61
2019-01-24T17:48:10.120Z,92.56
2019-01-24T17:50:39.698Z,93.78
2019-01-24T17:53:09.189Z,92.23
2019-01-24T17:55:42.639Z,92.93
2019-01-24T17:58:12.289Z,93.40
2019-01-24T18:00:43.656Z,93.28
2019-01-24T18:03:13.217Z,93.72
2019-01-24T18:05:42.728Z,90.45
2019-01-24T18:08:12.224Z,90.42
2019-01-24T18:10:41.806Z,89.36
2019-01-24T18:13:11.544Z,92.03
2019-01-24T18:15:41.279Z,92.67
2019-01-24T18:18:13.664Z,91.99
2019-01-24T18:20:43.293Z,90.85
2019-01-24T18:23:13.183Z,90.23
2019-01-24T18:25:42.737Z,90.46
2019-01-24T18:28:12.956Z,90.80
2019-01-24T18:30:42.967Z,91.30
2019-01-24T18:33:12.764Z,91.51
2019-01-24T18:35:42.353Z,90.10
2019-01-24T18:38:11.927Z,89.49
2019-01-24T18:40:41.584Z,90.17
2019-01-24T18:43:15.593Z,90.96
2019-01-24T18:45:54.412Z,92.46
2019-01-24T18:48:24.078Z,92.19
2019-01-24T18:50:53.666Z,93.73
2019-01-24T18:53:23.286Z,93.22
2019-01-24T18:55:52.801Z,93.29
2019-01-24T18:58:22.503Z,93.33
2019-01-24T19:00:52.119Z,92.70
2019-01-24T19:03:21.605Z,90.88
2019-01-24T19:05:51.140Z,91.29
2019-01-24T19:08:20.784Z,90.76
2019-01-24T19:10:50.416Z,91.49
2019-01-24T19:13:19.976Z,93.21
2019-01-24T19:15:51.188Z,91.91
2019-01-24T19:18:20.886Z,91.90
2019-01-24T19:20:50.560Z,91.96
2019-01-24T19:23:20.050Z,93.87
2019-01-24T19:25:49.722Z,94.08
2019-01-24T19:28:19.442Z,92.77
2019-01-24T19:30:49.094Z,92.61
2019-01-24T19:33:18.595Z,93.63
2019-01-24T19:35:48.187Z,92.64
2019-01-24T19:38:17.781Z,92.63
2019-01-24T19:40:47.394Z,93.70
2019-01-24T19:43:16.971Z,93.81
2019-01-24T19:45:46.583Z,93.95
2019-01-24T19:48:16.076Z,93.35
2019-01-24T19:50:45.624Z,93.98
2019-01-24T19:53:15.219Z,93.63
2019-01-24T19:55:44.723Z,93.75
2019-01-24T19:58:14.382Z,94.08
2019-01-24T20:00:43.858Z,92.32
2019-01-24T20:03:13.424Z,89.75
2019-01-24T20:05:43.060Z,90.57
2019-01-24T20:08:12.722Z,91.75
2019-01-24T20:10:42.329Z,92.06
2019-01-24T20:13:11.895Z,90.97
2019-01-24T20:15:41.581Z,91.47
2019-01-24T20:18:11.305Z,94.46
2019-01-24T20:20:41.041Z,93.58
2019-01-24T20:23:10.805Z,93.06
2019-01-24T20:25:40.325Z,93.46
2019-01-24T20:28:09.947Z,94.18
2019-01-24T20:30:39.459Z,94.13
2019-01-24T20:33:08.984Z,94.26
2019-01-24T20:35:48.575Z,93.78
2019-01-24T20:38:18.206Z,92.87
2019-01-24T20:40:47.783Z,93.56
2019-01-24T20:43:17.950Z,95.00
2019-01-24T20:45:47.512Z,94.54
2019-01-24T20:48:17.121Z,93.81
2019-01-24T20:50:46.755Z,93.43
2019-01-24T20:53:16.341Z,92.52
2019-01-24T20:55:45.916Z,93.66
2019-01-24T20:58:15.409Z,94.43
2019-01-24T21:00:45.118Z,93.93
2019-01-24T21:03:14.905Z,93.86
2019-01-24T21:05:44.463Z,92.36
2019-01-24T21:08:14.197Z,93.41
2019-01-24T21:10:43.783Z,91.45
2019-01-24T21:13:14.254Z,89.07
2019-01-24T21:15:43.779Z,90.27
2019-01-24T21:18:13.387Z,91.60
2019-01-24T21:20:42.968Z,90.53
2019-01-24T21:23:12.545Z,91.47
2019-01-24T21:25:42.192Z,91.72
2019-01-24T21:28:11.800Z,90.77
2019-01-24T21:30:41.460Z,90.10
2019-01-24T21:33:10.965Z,90.93
2019-01-24T21:35:40.568Z,90.73
2019-01-24T21:38:10.270Z,92.32
2019-01-24T21:40:39.823Z,92.41
2019-01-24T21:43:09.479Z,92.27
2019-01-24T21:45:39.532Z,91.99
2019-01-24T21:48:09.562Z,94.31
2019-01-24T21:50:39.243Z,93.92
2019-01-24T21:53:08.865Z,93.79
2019-01-24T21:55:38.572Z,94.74
2019-01-24T21:58:08.695Z,95.46
2019-01-24T22:00:38.349Z,95.77
2019-01-24T22:03:08.034Z,95.20
2019-01-24T22:08:07.257Z,93.92
2019-01-24T22:10:36.853Z,94.00
2019-01-24T22:13:07.063Z,94.84
2019-01-24T22:15:36.690Z,94.66
2019-01-24T22:18:06.623Z,94.54
2019-01-24T22:20:36.188Z,95.51
2019-01-24T22:23:06.017Z,96.07
2019-01-24T22:25:36.339Z,95.71
2019-01-24T22:28:07.043Z,95.65
2019-01-24T22:30:42.393Z,95.72
2019-01-24T22:33:12.066Z,96.06
2019-01-24T22:35:41.575Z,95.39
2019-01-24T22:38:11.383Z,96.16
2019-01-24T22:40:40.901Z,94.87
2019-01-24T22:43:10.387Z,95.30
2019-01-24T22:45:39.960Z,94.76
2019-01-24T22:48:09.613Z,94.15
2019-01-24T22:50:39.177Z,93.32
2019-01-24T22:53:08.740Z,91.91
2019-01-24T22:55:38.304Z,91.93
2019-01-24T22:58:08.346Z,92.30
2019-01-24T23:01:12.716Z,92.35
2019-01-24T23:03:45.102Z,91.89
2019-01-24T23:06:14.747Z,92.79
2019-01-24T23:08:44.242Z,92.80
2019-01-24T23:11:13.752Z,92.96
2019-01-24T23:13:43.327Z,92.31
2019-01-24T23:16:13.057Z,91.90
2019-01-24T23:18:42.647Z,91.90
2019-01-24T23:21:12.233Z,92.28
2019-01-24T23:23:41.793Z,91.45
2019-01-24T23:26:11.318Z,91.75
2019-01-24T23:28:40.840Z,92.55
2019-01-24T23:31:10.457Z,91.88
2019-01-24T23:33:40.040Z,91.72
2019-01-24T23:36:09.673Z,91.90
2019-01-24T23:38:40.239Z,92.72
2019-01-24T23:41:09.770Z,91.92
2019-01-24T23:43:40.757Z,92.17
2019-01-24T23:46:10.644Z,92.90
2019-01-24T23:48:40.131Z,92.06
2019-01-24T23:51:09.687Z,92.67
2019-01-24T23:53:39.200Z,92.83
2019-01-24T23:56:08.765Z,93.67
2019-01-24T23:58:38.281Z,92.71
